Time;durP1;ratioP1;P1;durP2;ratioP2;P2;SDS_P1;SDS_P2;PMS_P1;PMS_P2;Temp;Humidity;BMP_temperature;BMP_pressure;BME280_temperature;BME280_humidity;BME280_pressure;Samples;Min_cycle;Max_cycle;Signal;HPM_P1;HPM_P2
2023/06/05 00:00:42;;;;;;;24.08;12.95;;;;;;;29.18;66.46;100555.81;5106451;27;71180;-45
2023/06/05 00:03:13;;;;;;;32.92;13.55;;;;;;;29.53;66.87;100594.06;5109180;27;65381;-43
2023/06/05 00:05:44;;;;;;;23.02;13.90;;;;;;;29.51;68.25;100579.94;5103642;27;69684;-45
2023/06/05 00:08:15;;;;;;;16.27;12.93;;;;;;;29.57;69.91;100583.63;5106657;27;66568;-46
2023/06/05 00:10:46;;;;;;;24.80;14.48;;;;;;;29.62;70.73;100591.91;5108423;27;69291;-45
2023/06/05 00:13:17;;;;;;;26.38;13.93;;;;;;;29.75;69.13;100607.22;5108256;27;65823;-46
2023/06/05 00:15:47;;;;;;;21.58;13.85;;;;;;;29.70;69.11;100580.88;5114728;27;69910;-45
2023/06/05 00:18:18;;;;;;;22.17;14.43;;;;;;;29.90;70.03;100601.53;5106705;27;66129;-45
2023/06/05 00:20:49;;;;;;;19.35;14.70;;;;;;;29.74;70.60;100571.25;5109492;27;70016;-45
2023/06/05 00:23:20;;;;;;;19.30;13.70;;;;;;;29.68;69.58;100555.94;5107649;27;66422;-44
2023/06/05 00:25:51;;;;;;;21.75;13.48;;;;;;;30.02;70.41;100610.56;5104775;27;68784;-44
2023/06/05 00:28:24;;;;;;;22.00;14.48;;;;;;;29.98;69.98;100598.53;5105449;27;66073;-45
2023/06/05 00:30:55;;;;;;;16.58;14.50;;;;;;;30.15;69.49;100623.97;5105218;27;69755;-44
2023/06/05 00:33:29;;;;;;;19.45;14.13;;;;;;;30.16;70.98;100620.22;5112510;27;66334;-44
2023/06/05 00:36:01;;;;;;;23.65;15.52;;;;;;;30.20;71.95;100632.25;5105595;27;69827;-44
2023/06/05 00:38:32;;;;;;;27.42;13.80;;;;;;;29.46;69.30;100495.97;5085923;27;65368;-45
2023/06/05 00:41:03;;;;;;;17.27;13.20;;;;;;;30.30;68.94;100633.66;5114969;27;71909;-45
2023/06/05 00:43:35;;;;;;;16.85;13.35;;;;;;;30.02;68.25;100570.00;5105746;27;66382;-46
2023/06/05 00:46:06;;;;;;;17.45;13.52;;;;;;;30.37;68.27;100631.72;5104510;27;69939;-45
2023/06/05 00:48:37;;;;;;;17.25;12.38;;;;;;;30.36;68.27;100619.25;5104880;27;66653;-44
2023/06/05 00:51:10;;;;;;;15.57;12.73;;;;;;;30.30;67.88;100603.91;5103253;27;70561;-45
2023/06/05 00:53:57;;;;;;;15.07;12.45;;;;;;;30.24;68.39;100595.63;5100839;27;66401;-45
2023/06/05 00:56:28;;;;;;;14.02;12.63;;;;;;;30.46;67.63;100619.56;5109418;27;70521;-46
2023/06/05 00:58:59;;;;;;;12.27;11.00;;;;;;;30.42;67.43;100612.91;5116693;27;65966;-45
2023/06/05 01:01:30;;;;;;;12.30;11.10;;;;;;;30.44;66.56;100602.72;5103120;27;69780;-45
2023/06/05 01:04:01;;;;;;;13.07;11.77;;;;;;;29.70;66.56;100491.66;5112266;27;66519;-46
2023/06/05 01:06:34;;;;;;;13.73;12.13;;;;;;;30.36;66.42;100586.75;5109501;27;70105;-44
2023/06/05 01:09:05;;;;;;;12.55;11.40;;;;;;;30.56;66.19;100630.69;5108768;27;66931;-47
2023/06/05 01:11:45;;;;;;;14.37;11.87;;;;;;;30.58;66.16;100634.00;5122617;27;69968;-45
2023/06/05 01:14:22;;;;;;;10.95;10.02;;;;;;;30.31;66.00;100586.59;5112053;27;65610;-46
2023/06/05 01:16:53;;;;;;;14.25;10.90;;;;;;;30.58;66.24;100631.28;5117567;27;69383;-45
2023/06/05 01:19:24;;;;;;;12.55;11.20;;;;;;;30.59;65.88;100630.25;5119873;27;64963;-45
2023/06/05 01:21:58;;;;;;;11.30;10.30;;;;;;;30.46;65.57;100608.72;5107097;27;70132;-46
2023/06/05 01:24:29;;;;;;;13.25;11.48;;;;;;;30.43;65.56;100609.19;5119593;27;66457;-44
2023/06/05 01:27:08;;;;;;;11.30;10.10;;;;;;;30.69;65.62;100640.56;5073380;27;70285;-45
2023/06/05 01:29:52;;;;;;;11.65;10.63;;;;;;;30.71;65.74;100639.28;5117069;27;66107;-45
2023/06/05 01:32:31;;;;;;;10.70;9.70;;;;;;;29.82;65.32;100500.69;5119933;27;70425;-45
2023/06/05 01:35:35;;;;;;;10.75;9.75;;;;;;;30.62;65.70;100656.03;5103615;27;65564;-46
2023/06/05 01:38:09;;;;;;;13.85;10.43;;;;;;;30.75;64.99;100653.19;5110196;27;70097;-46
2023/06/05 01:40:41;;;;;;;10.18;9.35;;;;;;;30.41;65.01;100595.03;5106299;27;66477;-46
2023/06/05 01:43:12;;;;;;;10.35;9.55;;;;;;;30.76;65.08;100645.88;5120994;27;70179;-45
2023/06/05 01:45:44;;;;;;;10.65;9.20;;;;;;;30.79;64.84;100653.59;5105316;27;65515;-46
2023/06/05 01:48:15;;;;;;;10.90;9.77;;;;;;;30.59;64.61;100611.31;5084215;27;70126;-44
2023/06/05 01:50:46;;;;;;;9.82;9.20;;;;;;;30.82;65.12;100650.47;5109840;27;66205;-46
2023/06/05 01:53:18;;;;;;;10.88;9.77;;;;;;;30.85;64.72;100650.00;5113689;27;68069;-46
2023/06/05 01:55:49;;;;;;;10.38;9.48;;;;;;;30.86;64.88;100646.22;5113837;27;66799;-46
2023/06/05 01:58:24;;;;;;;11.55;9.75;;;;;;;30.68;65.03;100611.84;5116508;27;70143;-46
2023/06/05 02:00:56;;;;;;;10.10;9.20;;;;;;;30.92;64.92;100645.31;5107982;27;65927;-46
2023/06/05 02:03:28;;;;;;;9.57;8.85;;;;;;;30.75;64.77;100612.56;5114553;27;71626;-45
2023/06/05 02:05:59;;;;;;;9.10;8.50;;;;;;;30.96;64.56;100634.88;5116987;27;66310;-46
2023/06/05 02:08:30;;;;;;;9.07;8.38;;;;;;;30.88;64.63;100619.75;5111934;27;70472;-45
2023/06/05 02:11:02;;;;;;;11.45;9.70;;;;;;;30.85;64.66;100609.38;5108532;27;65778;-46
2023/06/05 02:13:33;;;;;;;9.75;8.98;;;;;;;31.03;64.33;100632.91;5115508;27;70436;-45
2023/06/05 02:16:04;;;;;;;10.43;9.45;;;;;;;30.92;64.69;100610.97;5101915;27;65049;-45
2023/06/05 02:18:37;;;;;;;12.73;9.52;;;;;;;30.70;64.80;100577.22;5116881;27;71049;-46
2023/06/05 02:21:07;;;;;;;10.00;9.10;;;;;;;31.10;64.53;100634.47;5110901;27;66522;-46
2023/06/05 02:23:38;;;;;;;9.70;8.95;;;;;;;31.03;64.47;100625.59;5117756;27;70635;-45
2023/06/05 02:26:09;;;;;;;10.93;9.50;;;;;;;31.13;64.67;100647.56;5106516;27;66615;-45
2023/06/05 02:28:40;;;;;;;9.18;8.48;;;;;;;31.09;64.74;100631.97;5112104;27;69467;-45
2023/06/05 02:31:16;;;;;;;10.10;9.27;;;;;;;31.17;64.35;100639.81;5113132;27;66552;-45
2023/06/05 02:33:46;;;;;;;9.45;8.70;;;;;;;31.20;64.08;100646.66;5100789;27;68926;-45
2023/06/05 02:36:18;;;;;;;9.98;9.20;;;;;;;31.00;64.60;100604.38;5111775;27;66298;-45
2023/06/05 02:38:52;;;;;;;10.60;9.50;;;;;;;30.94;64.41;100597.19;5103707;27;69970;-44
2023/06/05 02:41:23;;;;;;;10.25;9.35;;;;;;;31.27;64.48;100644.69;5105801;27;66477;-46
2023/06/05 02:43:59;;;;;;;10.32;8.82;;;;;;;31.29;64.56;100639.88;5103096;27;69863;-45
2023/06/05 02:46:30;;;;;;;9.57;8.80;;;;;;;31.30;64.46;100641.53;5109931;27;66548;-46
2023/06/05 02:49:01;;;;;;;9.80;8.93;;;;;;;31.33;64.31;100641.06;5103240;27;69475;-46
2023/06/05 02:51:32;;;;;;;9.35;8.73;;;;;;;31.07;64.11;100594.31;5090753;27;66488;-45
2023/06/05 02:54:03;;;;;;;9.23;8.37;;;;;;;31.32;64.29;100612.31;5106040;27;69178;-46
2023/06/05 02:56:34;;;;;;;8.87;8.17;;;;;;;31.38;64.19;100627.69;5104856;27;65699;-46
2023/06/05 02:59:05;;;;;;;9.40;8.43;;;;;;;31.30;63.84;100609.00;5105721;27;70923;-46
2023/06/05 03:01:36;;;;;;;10.07;9.07;;;;;;;31.33;64.40;100613.97;5111951;27;65658;-46
2023/06/05 03:04:39;;;;;;;9.02;7.63;;;;;;;31.46;63.93;100626.53;5102810;27;70093;-47
2023/06/05 03:07:13;;;;;;;9.00;8.15;;;;;;;31.37;64.02;100604.34;5018226;28;65103;-46
2023/06/05 03:09:45;;;;;;;8.75;7.95;;;;;;;31.45;63.99;100614.84;5107209;27;70305;-46
2023/06/05 03:12:16;;;;;;;8.80;7.97;;;;;;;31.44;64.40;100610.50;5103922;27;65909;-46
2023/06/05 03:14:46;;;;;;;8.23;7.53;;;;;;;31.39;63.96;100592.19;5109265;27;70240;-47
2023/06/05 03:17:17;;;;;;;8.03;7.43;;;;;;;31.58;63.57;100617.38;5103495;27;66966;-46
2023/06/05 03:19:50;;;;;;;7.90;7.30;;;;;;;31.59;63.82;100608.19;5107334;27;70267;-46
2023/06/05 03:22:21;;;;;;;8.23;7.60;;;;;;;31.63;63.97;100607.72;5111857;27;66080;-46
2023/06/05 03:24:52;;;;;;;7.60;7.00;;;;;;;31.58;63.92;100606.53;5105572;27;70039;-47
2023/06/05 03:27:23;;;;;;;8.38;7.78;;;;;;;31.68;64.18;100621.41;5091558;27;66482;-46
2023/06/05 03:29:58;;;;;;;8.25;7.45;;;;;;;31.59;65.00;100602.78;5107065;27;69252;-45
2023/06/05 03:32:31;;;;;;;10.07;7.50;;;;;;;31.67;65.44;100609.72;5098058;27;65009;-47
2023/06/05 03:35:02;;;;;;;9.98;7.45;;;;;;;31.60;65.86;100599.00;5101025;27;69147;-46
2023/06/05 03:37:33;;;;;;;9.48;7.78;;;;;;;31.59;66.52;100597.34;5112402;27;66387;-46
2023/06/05 03:40:05;;;;;;;8.18;7.32;;;;;;;31.64;66.92;100603.94;5092703;27;69959;-45
2023/06/05 03:42:37;;;;;;;8.13;7.43;;;;;;;31.77;67.60;100625.44;5111839;27;66187;-44
2023/06/05 03:45:09;;;;;;;7.85;7.25;;;;;;;31.24;67.90;100539.47;5108432;27;70624;-46
2023/06/05 03:47:40;;;;;;;7.60;6.88;;;;;;;31.83;66.54;100611.78;5103374;27;66865;-46
2023/06/05 03:50:12;;;;;;;11.73;6.53;;;;;;;31.89;66.15;100607.28;5105734;27;69945;-47
2023/06/05 03:52:52;;;;;;;7.28;6.55;;;;;;;31.95;65.86;100595.53;5124028;27;66896;-47
2023/06/05 03:55:23;;;;;;;7.85;6.10;;;;;;;31.98;65.73;100600.53;5109982;27;70238;-46
2023/06/05 03:58:00;;;;;;;9.60;6.53;;;;;;;32.00;65.41;100598.38;5094291;27;66382;-46
2023/06/05 04:00:31;;;;;;;7.25;6.63;;;;;;;32.02;65.43;100601.69;5109582;27;70213;-47
2023/06/05 04:03:02;;;;;;;6.95;6.28;;;;;;;32.02;65.22;100579.97;5104907;27;66080;-47
2023/06/05 04:05:33;;;;;;;6.65;5.93;;;;;;;32.02;65.19;100579.97;5109504;27;69657;-46
2023/06/05 04:08:05;;;;;;;7.20;6.50;;;;;;;32.13;65.11;100580.22;5093553;27;67505;-46
2023/06/05 04:10:37;;;;;;;6.45;5.93;;;;;;;31.94;65.04;100547.78;5104684;27;70059;-47
2023/06/05 04:13:58;;;;;;;6.32;5.47;;;;;;;32.11;65.34;100582.34;5109180;27;65999;-48
2023/06/05 04:16:29;;;;;;;6.43;5.82;;;;;;;31.95;64.53;100540.47;5126299;27;69621;-46
2023/06/05 04:19:01;;;;;;;6.30;5.70;;;;;;;32.22;64.70;100576.91;5116727;27;65984;-45
2023/06/05 04:21:35;;;;;;;6.72;6.05;;;;;;;32.26;64.38;100575.38;5104551;27;69871;-47
2023/06/05 04:24:09;;;;;;;5.90;5.50;;;;;;;32.26;64.18;100574.53;5111206;27;66920;-46
2023/06/05 04:26:41;;;;;;;5.38;4.97;;;;;;;31.96;64.28;100515.81;5108840;27;69869;-48
2023/06/05 04:29:18;;;;;;;6.43;5.68;;;;;;;32.32;64.36;100573.63;5105431;27;65025;-45
2023/06/05 04:31:50;;;;;;;5.72;5.30;;;;;;;32.34;64.37;100548.94;5111967;27;70087;-45
2023/06/05 04:34:21;;;;;;;5.60;5.20;;;;;;;32.26;64.37;100542.81;5102768;27;65224;-47
2023/06/05 04:36:51;;;;;;;5.15;4.72;;;;;;;30.89;63.96;100334.31;5113471;27;69161;-48
2023/06/05 04:39:23;;;;;;;5.70;5.13;;;;;;;32.26;63.65;100526.53;5108373;27;65769;-46
2023/06/05 04:41:54;;;;;;;5.80;5.00;;;;;;;32.36;63.82;100542.19;5112704;27;70124;-47
2023/06/05 04:45:08;;;;;;;5.95;5.55;;;;;;;32.43;63.81;100532.06;5108204;27;66040;-47
2023/06/05 04:47:43;;;;;;;6.57;5.63;;;;;;;32.45;63.54;100527.19;5130059;27;69477;-47
2023/06/05 04:50:26;;;;;;;5.20;4.72;;;;;;;32.43;63.53;100545.63;5099380;27;66538;-47
2023/06/05 04:53:04;;;;;;;5.18;4.82;;;;;;;32.51;63.41;100532.75;5120927;27;70244;-46
2023/06/05 04:55:36;;;;;;;7.32;5.00;;;;;;;32.53;63.33;100530.63;5097228;27;66053;-46
2023/06/05 04:58:07;;;;;;;5.73;5.23;;;;;;;32.52;63.49;100518.13;5095174;27;70844;-46
2023/06/05 05:00:39;;;;;;;5.55;5.00;;;;;;;32.55;63.31;100523.91;5111956;27;66090;-46
2023/06/05 05:03:14;;;;;;;5.82;5.22;;;;;;;32.46;63.15;100499.03;5107873;27;70554;-46
2023/06/05 05:05:45;;;;;;;4.72;4.43;;;;;;;32.59;63.11;100502.50;5109869;27;65870;-47
2023/06/05 05:08:16;;;;;;;6.73;4.27;;;;;;;31.66;63.03;100355.91;5085431;27;70672;-47
2023/06/05 05:10:48;;;;;;;4.72;4.32;;;;;;;32.40;63.15;100480.09;5111548;27;66637;-47
2023/06/05 05:13:19;;;;;;;5.47;5.07;;;;;;;32.40;62.52;100471.97;5101383;27;68956;-47
2023/06/05 05:15:52;;;;;;;4.90;4.50;;;;;;;32.63;62.81;100511.84;5121381;27;66070;-47
2023/06/05 05:18:24;;;;;;;4.53;4.22;;;;;;;32.60;62.83;100487.91;5115877;27;70300;-46
2023/06/05 05:20:55;;;;;;;4.78;4.47;;;;;;;32.64;62.50;100489.03;5117241;27;64999;-46
2023/06/05 05:23:26;;;;;;;4.75;4.35;;;;;;;32.68;62.76;100484.75;5117697;27;70400;-47
2023/06/05 05:25:57;;;;;;;5.15;4.60;;;;;;;32.67;62.60;100472.25;5101963;27;65264;-47
2023/06/05 05:28:28;;;;;;;4.68;4.30;;;;;;;32.72;62.65;100464.22;5109625;27;70328;-45
2023/06/05 05:31:00;;;;;;;4.90;4.57;;;;;;;32.76;62.78;100454.50;5119298;27;66590;-47
2023/06/05 05:33:34;;;;;;;5.28;4.88;;;;;;;32.72;62.60;100448.75;5112894;27;69526;-47
2023/06/05 05:36:05;;;;;;;4.30;4.00;;;;;;;32.78;62.80;100452.38;5101198;27;66195;-47
2023/06/05 05:38:36;;;;;;;4.88;4.53;;;;;;;32.53;62.34;100401.13;5122438;27;70391;-47
2023/06/05 05:41:07;;;;;;;4.03;3.70;;;;;;;32.74;62.61;100440.38;5117157;27;65607;-48
2023/06/05 05:43:38;;;;;;;4.60;4.20;;;;;;;32.86;62.56;100438.41;5100649;27;72042;-47
2023/06/05 05:46:09;;;;;;;4.97;4.00;;;;;;;32.89;62.21;100435.19;5104510;27;67301;-47
2023/06/05 05:48:40;;;;;;;5.07;4.60;;;;;;;32.92;62.22;100426.53;5108067;27;70524;-48
2023/06/05 05:51:10;;;;;;;4.53;4.10;;;;;;;32.91;61.95;100418.66;5102950;27;66262;-49
2023/06/05 05:53:41;;;;;;;4.82;4.40;;;;;;;32.96;62.05;100412.47;5117160;27;70007;-49
2023/06/05 05:56:12;;;;;;;3.90;3.60;;;;;;;33.00;62.07;100414.50;5113353;27;65993;-49
2023/06/05 05:58:44;;;;;;;4.13;3.83;;;;;;;32.87;62.01;100390.31;5105769;27;70027;-48
2023/06/05 06:01:15;;;;;;;4.47;4.18;;;;;;;33.07;61.84;100415.16;5111203;27;65794;-48
2023/06/05 06:03:46;;;;;;;4.50;4.20;;;;;;;32.94;62.04;100396.44;5104382;27;70939;-48
2023/06/05 06:06:17;;;;;;;4.43;4.03;;;;;;;32.91;61.76;100386.88;5108746;27;65741;-49
2023/06/05 06:08:48;;;;;;;4.80;4.50;;;;;;;33.18;61.29;100418.03;5114312;27;70391;-48
2023/06/05 06:11:19;;;;;;;4.20;3.90;;;;;;;33.18;61.70;100402.53;5103354;27;65032;-48
2023/06/05 06:13:50;;;;;;;3.92;3.63;;;;;;;33.12;61.55;100388.03;5102456;27;70010;-49
2023/06/05 06:16:22;;;;;;;4.38;4.00;;;;;;;33.24;61.44;100401.56;5104703;27;66056;-47
2023/06/05 06:18:55;;;;;;;5.50;3.83;;;;;;;33.24;61.13;100385.25;5115379;27;71127;-47
2023/06/05 06:21:27;;;;;;;4.85;4.40;;;;;;;33.31;61.07;100385.09;5103729;27;65079;-46
2023/06/05 06:23:58;;;;;;;7.20;4.03;;;;;;;33.28;61.40;100369.28;5113563;27;70463;-47
2023/06/05 06:26:30;;;;;;;5.05;4.05;;;;;;;33.36;60.64;100366.13;5109142;27;65590;-48
2023/06/05 06:29:01;;;;;;;4.60;4.28;;;;;;;33.39;60.69;100352.03;5117175;27;70155;-49
2023/06/05 06:31:42;;;;;;;4.10;3.78;;;;;;;33.34;60.66;100347.34;5108331;27;66020;-48
2023/06/05 06:34:13;;;;;;;4.20;3.80;;;;;;;33.33;60.65;100332.13;5109238;27;68883;-47
2023/06/05 06:36:46;;;;;;;3.88;3.67;;;;;;;33.27;60.81;100321.44;5114230;27;65882;-47
2023/06/05 06:39:18;;;;;;;4.05;3.75;;;;;;;33.54;60.57;100346.00;5103086;27;70659;-47
2023/06/05 06:41:48;;;;;;;;;;;;;;;33.27;60.89;100341.28;5110936;27;66129;-46
2023/06/05 06:44:19;;;;;;;4.18;3.78;;;;;;;33.52;60.77;100331.84;5095774;27;69438;-46
2023/06/05 06:46:49;;;;;;;4.18;3.10;;;;;;;33.55;60.22;100331.34;5104685;27;66611;-47
2023/06/05 06:49:20;;;;;;;3.97;3.53;;;;;;;33.56;60.56;100319.41;5115041;27;71657;-48
2023/06/05 06:51:51;;;;;;;5.10;2.97;;;;;;;33.69;59.94;100332.63;5109246;27;65776;-49
2023/06/05 06:54:25;;;;;;;5.80;3.20;;;;;;;33.71;59.99;100333.22;5117596;27;72212;-46
2023/06/05 06:56:57;;;;;;;4.00;3.80;;;;;;;33.75;59.95;100320.72;5116602;27;66512;-47
2023/06/05 06:59:27;;;;;;;3.75;3.45;;;;;;;33.78;60.00;100322.94;5104497;27;70334;-47
2023/06/05 07:02:15;;;;;;;3.88;3.42;;;;;;;33.11;59.58;100217.94;5112730;27;65546;-46
2023/06/05 07:04:48;;;;;;;3.20;3.00;;;;;;;33.79;60.01;100308.28;5110676;27;70460;-49
2023/06/05 07:07:21;;;;;;;3.58;3.13;;;;;;;33.94;59.74;100323.13;5113790;27;66388;-49
2023/06/05 07:09:51;;;;;;;6.28;3.40;;;;;;;33.88;59.61;100307.81;5118095;27;69752;-47
2023/06/05 07:12:23;;;;;;;3.35;3.05;;;;;;;33.94;59.43;100302.19;5112931;27;65705;-46
2023/06/05 07:14:54;;;;;;;3.50;3.28;;;;;;;34.00;59.35;100305.78;5100993;27;70293;-46
2023/06/05 07:17:27;;;;;;;3.30;3.00;;;;;;;34.02;59.28;100298.19;5120367;27;64854;-47
2023/06/05 07:19:58;;;;;;;3.53;3.28;;;;;;;34.05;59.24;100295.00;5118497;27;70876;-45
2023/06/05 07:22:30;;;;;;;3.25;3.05;;;;;;;34.05;59.19;100292.28;5123586;27;65484;-47
2023/06/05 07:25:01;;;;;;;5.35;3.30;;;;;;;34.01;58.86;100280.19;5116517;27;70559;-47
2023/06/05 07:27:32;;;;;;;3.88;3.58;;;;;;;34.09;59.23;100323.31;5105118;27;65692;-46
2023/06/05 07:30:03;;;;;;;3.40;3.10;;;;;;;33.99;59.22;100331.34;5117529;27;69551;-48
2023/06/05 07:32:34;;;;;;;3.75;3.22;;;;;;;34.05;58.79;100363.03;5117106;27;66283;-45
2023/06/05 07:35:07;;;;;;;4.07;2.70;;;;;;;34.08;60.53;100406.06;5106447;27;71427;-46
2023/06/05 07:37:39;;;;;;;8.05;3.20;;;;;;;34.08;60.29;100427.84;5110956;27;66090;-48
2023/06/05 07:40:11;;;;;;;3.08;2.78;;;;;;;34.09;60.23;100399.53;5102000;27;70525;-46
2023/06/05 07:42:42;;;;;;;2.80;2.60;;;;;;;34.02;60.89;100394.25;5116743;27;66570;-45
2023/06/05 07:45:13;;;;;;;5.07;3.00;;;;;;;34.02;60.51;100333.56;5112569;27;71129;-44
2023/06/05 07:47:45;;;;;;;5.32;2.75;;;;;;;33.99;60.89;100375.72;5114425;27;65815;-45
2023/06/05 07:50:16;;;;;;;6.95;2.80;;;;;;;33.93;60.79;100354.94;5120651;27;70019;-45
2023/06/05 07:52:46;;;;;;;6.18;3.03;;;;;;;33.97;60.81;100360.72;5107778;27;65760;-47
2023/06/05 07:55:17;;;;;;;3.47;3.17;;;;;;;33.84;60.45;100355.66;5116747;27;70168;-46
2023/06/05 07:57:52;;;;;;;3.17;2.50;;;;;;;33.94;60.19;100374.84;5111911;27;66258;-45
2023/06/05 08:00:24;;;;;;;2.78;2.58;;;;;;;33.84;60.36;100366.53;5116311;27;69859;-51
2023/06/05 08:02:59;;;;;;;2.72;2.35;;;;;;;33.92;60.59;100385.16;5118386;27;66460;-46
2023/06/05 08:05:31;;;;;;;2.55;2.35;;;;;;;33.86;60.40;100380.72;5116109;27;70282;-46
2023/06/05 08:08:03;;;;;;;2.55;2.20;;;;;;;33.62;60.52;100345.56;5122299;27;66948;-44
2023/06/05 08:11:09;;;;;;;4.90;2.22;;;;;;;33.70;60.64;100377.78;5110828;27;69922;-45
2023/06/05 08:13:45;;;;;;;;;;;;;;;33.46;61.38;100381.75;5102330;27;66310;-46
2023/06/05 08:16:16;;;;;;;3.95;2.10;;;;;;;33.57;60.55;100361.81;5116268;27;70435;-45
2023/06/05 08:18:47;;;;;;;2.80;1.80;;;;;;;33.63;60.82;100370.88;5114928;27;66142;-46
2023/06/05 08:21:21;;;;;;;2.20;2.00;;;;;;;33.69;60.69;100381.59;5105915;27;70775;-47
2023/06/05 08:23:52;;;;;;;3.30;2.38;;;;;;;33.66;60.55;100357.63;5104504;27;65204;-44
2023/06/05 08:26:33;;;;;;;2.87;2.17;;;;;;;33.56;60.68;100350.13;5090021;27;70569;-47
2023/06/05 08:29:56;;;;;;;2.80;2.60;;;;;;;33.46;61.04;100346.41;5109498;27;66241;-45
2023/06/05 08:35:32;;;;;;;2.58;2.38;;;;;;;33.46;61.52;100365.44;5105705;27;66017;-46
2023/06/05 08:38:03;;;;;;;2.40;1.80;;;;;;;33.46;61.11;100370.88;5099209;27;69387;-47
2023/06/05 08:40:36;;;;;;;1.90;1.70;;;;;;;33.38;61.25;100389.28;5115985;27;65048;-46
2023/06/05 08:43:07;;;;;;;2.70;2.50;;;;;;;33.27;61.45;100357.59;5118743;27;70321;-47
2023/06/05 08:45:38;;;;;;;2.35;2.15;;;;;;;33.33;61.45;100372.91;5113036;27;65971;-47
2023/06/05 08:48:17;;;;;;;2.50;2.30;;;;;;;33.29;61.80;100366.31;5121567;27;70972;-49
2023/06/05 08:50:49;;;;;;;2.60;2.40;;;;;;;33.30;61.75;100381.56;5111924;27;66636;-45
2023/06/05 08:53:23;;;;;;;2.75;2.28;;;;;;;33.27;61.56;100373.91;5107305;27;69169;-46
2023/06/05 08:55:58;;;;;;;6.18;2.42;;;;;;;33.23;61.86;100378.16;5104433;27;67029;-46
2023/06/05 08:58:31;;;;;;;2.92;2.65;;;;;;;32.59;62.15;100299.69;5088911;27;69673;-45
2023/06/05 09:01:02;;;;;;;4.97;2.50;;;;;;;33.09;62.33;100376.84;5111137;27;65445;-46
2023/06/05 09:03:34;;;;;;;3.00;2.70;;;;;;;32.60;62.21;100305.97;5105005;27;68751;-45
2023/06/05 09:06:04;;;;;;;;;;;;;;;32.77;63.66;100373.88;5106462;27;65212;-45
2023/06/05 09:08:35;;;;;;;3.15;2.53;;;;;;;33.04;62.44;100374.06;5116461;27;68667;-45
2023/06/05 09:11:25;;;;;;;3.80;2.70;;;;;;;32.94;62.87;100370.06;5102130;27;67475;-45
2023/06/05 09:13:58;;;;;;;3.28;2.97;;;;;;;32.75;62.65;100314.34;5107168;27;70141;-46
2023/06/05 09:16:43;;;;;;;3.30;3.00;;;;;;;32.01;63.19;100206.66;5080220;27;64621;-45
2023/06/05 09:19:14;;;;;;;2.70;2.50;;;;;;;32.89;62.73;100331.97;5105449;27;69926;-46
2023/06/05 09:22:39;;;;;;;4.20;2.80;;;;;;;32.68;64.22;100327.25;5104423;27;65355;-45
2023/06/05 09:25:25;;;;;;;3.05;2.75;;;;;;;32.86;63.17;100340.59;5049826;28;70656;-45
2023/06/05 09:28:08;;;;;;;3.15;2.92;;;;;;;32.68;63.55;100321.81;5056550;28;66403;-46
2023/06/05 09:31:00;;;;;;;4.32;3.85;;;;;;;32.69;64.23;100321.59;5059542;28;69819;-45
2023/06/05 09:33:37;;;;;;;4.13;3.80;;;;;;;32.31;63.43;100259.00;5084737;27;66401;-46
2023/06/05 09:36:11;;;;;;;4.97;4.28;;;;;;;32.91;64.14;100392.31;5114841;27;69301;-46
2023/06/05 09:38:42;;;;;;;4.63;4.22;;;;;;;32.86;64.26;100356.09;5113243;27;65934;-46
2023/06/05 09:41:15;;;;;;;4.38;4.07;;;;;;;32.18;64.28;100251.97;5114983;27;70285;-46
2023/06/05 09:43:46;;;;;;;5.30;4.30;;;;;;;32.78;64.47;100368.16;5115457;27;65099;-46
2023/06/05 09:46:20;;;;;;;4.88;4.30;;;;;;;32.87;64.66;100385.72;5103511;27;70529;-44
2023/06/05 09:48:58;;;;;;;5.32;4.82;;;;;;;32.87;64.64;100396.56;5118763;27;66493;-46
2023/06/05 09:51:30;;;;;;;4.90;4.50;;;;;;;32.87;64.86;100393.84;5121041;27;70524;-45
2023/06/05 09:54:02;;;;;;;4.97;4.57;;;;;;;32.85;65.19;100390.59;5104486;27;65320;-46
2023/06/05 09:56:34;;;;;;;6.28;5.72;;;;;;;32.85;65.58;100396.00;5113786;27;70560;-46
2023/06/05 09:59:08;;;;;;;5.57;5.07;;;;;;;32.17;65.15;100275.56;5109612;27;66251;-45
2023/06/05 10:01:43;;;;;;;8.55;5.05;;;;;;;31.53;65.49;100175.34;5103513;27;69735;-45
2023/06/05 10:04:16;;;;;;;7.40;5.78;;;;;;;32.82;65.86;100382.06;5103860;27;65458;-46
2023/06/05 10:06:49;;;;;;;6.30;5.78;;;;;;;32.77;65.55;100380.13;5107688;27;70949;-46
2023/06/05 10:09:21;;;;;;;10.25;5.82;;;;;;;32.84;65.68;100388.91;5107436;27;65852;-46
2023/06/05 10:11:54;;;;;;;6.65;5.70;;;;;;;32.83;65.81;100395.44;5113859;27;69809;-46
2023/06/05 10:14:26;;;;;;;8.20;5.88;;;;;;;32.82;65.63;100407.38;5106947;27;65846;-47
2023/06/05 10:16:59;;;;;;;6.65;5.97;;;;;;;32.72;65.91;100374.59;5102359;27;69773;-46
2023/06/05 10:19:30;;;;;;;6.68;6.18;;;;;;;32.73;65.77;100378.94;5112195;27;66451;-46
2023/06/05 10:22:02;;;;;;;6.75;5.63;;;;;;;32.76;66.04;100380.34;5104335;27;69131;-46
2023/06/05 10:24:47;;;;;;;7.90;6.65;;;;;;;32.66;66.57;100383.72;5104524;27;65816;-47
2023/06/05 10:27:48;;;;;;;6.30;5.65;;;;;;;32.76;66.59;100411.03;5104087;27;70520;-46
2023/06/05 10:30:34;;;;;;;6.22;5.65;;;;;;;32.86;66.46;100427.53;5112004;27;67128;-47
2023/06/05 10:33:40;;;;;;;8.15;6.45;;;;;;;32.76;67.79;100430.06;5119354;27;70333;-46
2023/06/05 10:36:26;;;;;;;6.80;6.30;;;;;;;32.26;67.70;100352.84;5111556;27;65753;-48
2023/06/05 10:39:00;;;;;;;7.55;7.03;;;;;;;32.66;67.16;100411.69;5123652;27;70321;-46
2023/06/05 10:41:31;;;;;;;7.75;6.95;;;;;;;32.68;67.58;100403.28;5107851;27;65989;-45
2023/06/05 10:44:02;;;;;;;10.68;8.13;;;;;;;32.84;67.43;100435.09;5111480;27;70095;-44
2023/06/05 10:46:37;;;;;;;10.13;9.23;;;;;;;31.38;69.77;100215.72;5103999;27;65475;-45
2023/06/05 10:49:17;;;;;;;13.40;9.13;;;;;;;32.83;69.44;100451.66;5104267;27;70418;-46
2023/06/05 10:51:50;;;;;;;12.70;9.15;;;;;;;32.64;68.92;100429.31;5101341;27;65498;-46
2023/06/05 10:54:24;;;;;;;9.27;8.40;;;;;;;32.78;69.42;100457.81;5112376;27;69731;-45
2023/06/05 10:57:01;;;;;;;9.52;8.57;;;;;;;32.47;69.24;100432.78;5099394;27;65998;-44
2023/06/05 10:59:37;;;;;;;8.90;8.15;;;;;;;31.71;69.20;100328.09;5102787;27;69959;-46
2023/06/05 11:02:19;;;;;;;12.02;8.18;;;;;;;32.65;69.04;100477.09;5109259;27;66186;-46
2023/06/05 11:04:51;;;;;;;7.50;6.90;;;;;;;32.60;68.97;100482.47;5103392;27;70187;-46
2023/06/05 11:07:28;;;;;;;6.70;6.15;;;;;;;32.26;69.01;100433.41;5107804;27;66471;-45
2023/06/05 11:10:09;;;;;;;7.32;6.63;;;;;;;32.49;70.21;100471.38;5105756;27;70398;-45
2023/06/05 11:12:41;;;;;;;7.60;6.65;;;;;;;32.51;69.84;100473.03;5124828;27;66461;-45
2023/06/05 11:15:16;;;;;;;6.63;5.83;;;;;;;32.42;70.30;100465.22;5105379;27;70397;-44
2023/06/05 11:17:48;;;;;;;7.63;5.65;;;;;;;32.45;69.57;100469.34;5112755;27;66673;-45
2023/06/05 11:20:24;;;;;;;5.95;5.53;;;;;;;32.51;70.47;100490.13;5105798;27;70224;-46
2023/06/05 11:22:56;;;;;;;8.70;5.80;;;;;;;32.53;70.02;100492.63;5107932;27;65889;-47
2023/06/05 11:25:28;;;;;;;5.95;5.45;;;;;;;32.52;70.07;100493.69;5105894;27;69864;-45
2023/06/05 11:28:01;;;;;;;5.88;5.20;;;;;;;31.70;70.08;100357.06;5111893;27;66361;-46
2023/06/05 11:30:38;;;;;;;5.43;4.70;;;;;;;32.45;70.09;100482.94;5109791;27;69553;-49
2023/06/05 11:33:20;;;;;;;5.72;4.90;;;;;;;31.70;69.70;100373.34;5107703;27;65982;-62
2023/06/05 11:35:52;;;;;;;8.35;4.40;;;;;;;32.25;69.81;100483.34;5107572;27;70493;-44
2023/06/05 11:38:24;;;;;;;5.07;3.85;;;;;;;32.42;69.59;100524.94;5103759;27;66059;-46
2023/06/05 11:40:56;;;;;;;3.40;3.10;;;;;;;32.17;69.08;100491.84;5104014;27;70537;-49
2023/06/05 11:43:27;;;;;;;;;;;;;;;31.98;71.27;100542.69;5100681;27;66068;-48
2023/06/05 11:45:58;;;;;;;13.27;4.10;;;;;;;31.98;71.19;100543.53;5109974;27;70068;-46
2023/06/05 11:48:30;;;;;;;11.40;4.20;;;;;;;31.89;70.85;100542.19;5100790;27;66886;-46
2023/06/05 11:51:07;;;;;;;;;;;;;;;31.46;71.87;100558.78;5106582;27;69384;-46
2023/06/05 11:53:47;;;;;;;5.60;4.95;;;;;;;30.08;71.33;100341.06;5111907;27;66537;-46
2023/06/05 11:56:18;;;;;;;5.82;5.28;;;;;;;31.12;72.22;100526.72;5104206;27;69935;-46
2023/06/05 11:58:49;;;;;;;6.93;4.60;;;;;;;31.13;71.76;100549.22;5103992;27;65623;-45